createdAt,value
2023-12-09T00:33:48.278Z,20.20
2023-12-09T00:38:50.210Z,21.45
2023-12-09T00:43:51.897Z,22.08
2023-12-09T00:48:53.723Z,19.05
2023-12-09T00:53:55.633Z,15.07
2023-12-09T00:58:57.555Z,19.40
2023-12-09T01:04:00.006Z,20.38
2023-12-09T01:09:02.004Z,17.10
2023-12-09T01:14:03.775Z,11.52
2023-12-09T01:19:05.520Z,18.85
2023-12-09T01:24:07.266Z,26.25
2023-12-09T01:29:08.986Z,20.27
2023-12-09T01:34:11.045Z,21.83
2023-12-09T01:39:12.992Z,16.15
2023-12-09T01:44:14.776Z,15.50
2023-12-09T01:49:17.098Z,25.70
2023-12-09T01:54:19.077Z,20.58
2023-12-09T01:59:23.816Z,16.20
2023-12-09T02:04:25.625Z,23.35
2023-12-09T02:09:27.386Z,22.02
2023-12-09T02:15:02.687Z,20.02
2023-12-09T02:20:05.349Z,21.50
2023-12-09T02:25:08.163Z,16.27
2023-12-09T02:30:26.363Z,15.73
2023-12-09T02:35:30.399Z,22.50
2023-12-09T02:40:33.328Z,16.13
2023-12-09T02:45:35.180Z,19.92
2023-12-09T02:50:37.453Z,18.83
2023-12-09T02:55:39.161Z,18.40
2023-12-09T03:00:41.442Z,11.85
2023-12-09T03:05:49.009Z,23.65
2023-12-09T03:10:50.726Z,18.52
2023-12-09T03:15:52.457Z,23.58
2023-12-09T03:20:54.245Z,20.98
2023-12-09T03:25:55.968Z,23.35
2023-12-09T03:30:57.631Z,16.77
2023-12-09T03:35:59.311Z,15.27
2023-12-09T03:41:01.346Z,20.38
2023-12-09T03:46:03.169Z,19.98
2023-12-09T03:51:05.165Z,17.30
2023-12-09T03:56:08.146Z,14.63
2023-12-09T04:01:10.320Z,18.52
2023-12-09T04:06:12.144Z,15.77
2023-12-09T04:11:13.913Z,13.75
2023-12-09T04:16:15.740Z,18.02
2023-12-09T04:21:17.422Z,12.68
2023-12-09T04:26:19.278Z,15.80
2023-12-09T04:31:20.957Z,15.95
2023-12-09T04:36:22.738Z,16.50
2023-12-09T04:41:24.473Z,23.33
2023-12-09T04:46:26.207Z,19.15
2023-12-09T04:51:27.930Z,19.27
2023-12-09T04:56:30.951Z,17.15
2023-12-09T05:01:32.739Z,12.93
2023-12-09T05:06:34.483Z,16.80
2023-12-09T05:11:36.244Z,15.95
2023-12-09T05:16:38.047Z,16.30
2023-12-09T05:21:39.764Z,13.32
2023-12-09T05:26:42.459Z,16.17
2023-12-09T05:31:44.104Z,10.77
2023-12-09T05:36:45.776Z,15.63
2023-12-09T05:41:47.612Z,17.20
2023-12-09T05:46:49.345Z,18.10
2023-12-09T05:51:51.080Z,20.92
2023-12-09T05:56:53.033Z,14.10
2023-12-09T06:01:58.981Z,15.50
2023-12-09T06:07:00.748Z,17.73
2023-12-09T06:12:05.947Z,18.52
2023-12-09T06:17:07.683Z,17.10
2023-12-09T06:22:09.453Z,20.33
2023-12-09T06:27:18.249Z,17.77
2023-12-09T06:32:19.984Z,21.98
2023-12-09T06:37:21.838Z,22.27
2023-12-09T06:42:31.013Z,20.33
2023-12-09T06:47:33.615Z,24.60
2023-12-09T06:58:03.546Z,23.85
2023-12-09T07:03:06.276Z,24.13
2023-12-09T07:08:15.472Z,27.75
2023-12-09T07:13:17.222Z,29.73
2023-12-09T07:18:20.461Z,34.10
2023-12-09T07:23:22.361Z,28.17
2023-12-09T07:28:24.563Z,27.98
2023-12-09T07:33:26.650Z,23.15
2023-12-09T07:38:31.771Z,27.88
2023-12-09T07:43:41.184Z,26.48
2023-12-09T07:48:43.088Z,26.48
2023-12-09T07:53:44.885Z,28.50
2023-12-09T07:58:46.850Z,32.53
2023-12-09T08:03:50.819Z,28.63
2023-12-09T08:08:52.654Z,28.30
2023-12-09T08:13:54.360Z,33.63
2023-12-09T08:18:57.769Z,28.98
2023-12-09T08:24:02.028Z,25.88
2023-12-09T08:29:05.748Z,24.23
2023-12-09T08:34:10.553Z,24.73
2023-12-09T08:39:12.377Z,23.75
2023-12-09T08:44:14.123Z,27.88
2023-12-09T08:49:15.899Z,17.67
2023-12-09T08:54:20.628Z,24.02
2023-12-09T08:59:22.365Z,22.80
2023-12-09T09:04:25.662Z,22.42
2023-12-09T09:09:29.697Z,25.90
2023-12-09T09:14:31.462Z,18.58
2023-12-09T09:19:35.718Z,21.48
2023-12-09T09:24:37.837Z,19.35
2023-12-09T09:29:39.903Z,20.13
2023-12-09T09:34:42.736Z,19.80
2023-12-09T09:39:47.139Z,15.43
2023-12-09T09:44:58.356Z,17.38
2023-12-09T09:50:01.149Z,22.83
2023-12-09T09:55:12.446Z,17.33
2023-12-09T10:00:15.825Z,15.85
2023-12-09T10:05:23.766Z,17.45
2023-12-09T10:10:26.546Z,18.23
2023-12-09T10:15:30.567Z,16.48
2023-12-09T10:20:35.378Z,17.27
2023-12-09T10:25:41.355Z,16.45
2023-12-09T10:30:47.107Z,13.23
2023-12-09T10:35:48.967Z,12.68
2023-12-09T10:40:59.679Z,16.48
2023-12-09T10:46:01.408Z,16.15
2023-12-09T10:51:04.370Z,16.85
2023-12-09T10:56:09.810Z,13.90
2023-12-09T11:01:12.473Z,9.00
2023-12-09T11:06:17.324Z,11.68
2023-12-09T11:11:20.164Z,10.60
2023-12-09T11:16:25.181Z,7.18
2023-12-09T11:21:28.606Z,12.20
2023-12-09T11:26:34.535Z,10.15
2023-12-09T11:31:51.117Z,9.85
2023-12-09T11:36:55.134Z,18.42
2023-12-09T11:41:57.390Z,10.68
2023-12-09T11:46:59.465Z,10.90
2023-12-09T11:52:01.240Z,9.07
2023-12-09T11:57:04.188Z,11.40
2023-12-09T12:02:06.384Z,10.05
2023-12-09T12:07:08.139Z,6.93
2023-12-09T12:12:10.226Z,10.98
2023-12-09T12:17:15.684Z,3.88
2023-12-09T12:22:19.866Z,7.60
2023-12-09T12:27:22.419Z,9.45
2023-12-09T12:32:25.264Z,4.03
2023-12-09T12:37:28.157Z,5.88
2023-12-09T12:42:31.097Z,5.78
2023-12-09T12:47:35.680Z,4.63
2023-12-09T12:52:37.385Z,7.88
2023-12-09T12:57:40.008Z,3.13
2023-12-09T13:02:41.969Z,4.15
2023-12-09T13:07:44.829Z,3.78
2023-12-09T13:12:47.038Z,5.38
2023-12-09T13:17:48.821Z,4.28
2023-12-09T13:22:50.769Z,3.60
2023-12-09T13:27:52.596Z,2.17
2023-12-09T13:32:54.743Z,4.53
2023-12-09T13:37:57.866Z,3.83
2023-12-09T13:43:00.300Z,4.70
2023-12-09T13:48:02.168Z,2.83
2023-12-09T13:53:04.100Z,2.63
2023-12-09T13:58:05.919Z,3.83
2023-12-09T14:03:08.951Z,3.13
2023-12-09T14:08:13.128Z,2.22
2023-12-09T14:13:15.463Z,2.15
2023-12-09T14:18:17.373Z,1.85
2023-12-09T14:23:19.422Z,1.13
2023-12-09T14:28:21.230Z,1.90
2023-12-09T14:33:23.197Z,1.10
2023-12-09T14:38:25.188Z,2.17
2023-12-09T14:43:26.960Z,2.67
2023-12-09T14:48:32.513Z,1.25
2023-12-09T14:53:37.224Z,2.33
2023-12-09T14:58:39.139Z,2.03
2023-12-09T15:03:42.756Z,1.77
2023-12-09T15:08:44.621Z,1.27
2023-12-09T15:13:46.441Z,1.63
2023-12-09T15:18:48.398Z,1.15
2023-12-09T15:23:50.160Z,2.25
2023-12-09T15:28:54.600Z,1.30
2023-12-09T15:33:56.612Z,3.60
2023-12-09T15:38:58.927Z,3.90
2023-12-09T15:44:00.748Z,5.93
2023-12-09T15:49:03.477Z,4.78
2023-12-09T15:54:06.952Z,2.47
2023-12-09T15:59:08.646Z,2.45
2023-12-09T16:04:10.625Z,2.70
2023-12-09T16:09:13.957Z,2.75
2023-12-09T16:14:15.751Z,2.10
2023-12-09T16:19:17.617Z,2.08
2023-12-09T16:24:19.416Z,4.55
2023-12-09T16:29:21.360Z,2.40
2023-12-09T16:34:23.142Z,2.40
2023-12-09T16:39:24.982Z,2.35
2023-12-09T16:44:26.797Z,4.90
2023-12-09T16:49:29.486Z,6.93
2023-12-09T16:54:31.962Z,8.25
2023-12-09T16:59:33.813Z,7.97
2023-12-09T17:04:36.227Z,7.60
2023-12-09T17:09:38.065Z,29.60
2023-12-09T17:14:39.817Z,11.85
2023-12-09T17:19:41.618Z,13.50
2023-12-09T17:24:43.477Z,10.30
2023-12-09T17:29:45.378Z,9.75
2023-12-09T17:34:47.098Z,18.10
2023-12-09T17:39:48.929Z,20.73
2023-12-09T17:44:50.593Z,18.95
2023-12-09T17:49:53.849Z,21.80
2023-12-09T17:55:00.701Z,17.08
2023-12-09T18:00:03.983Z,17.90
2023-12-09T18:05:07.665Z,17.92
2023-12-09T18:10:09.639Z,21.25
2023-12-09T18:15:11.356Z,24.95
2023-12-09T18:20:13.292Z,20.35
2023-12-09T18:25:15.222Z,23.17
2023-12-09T18:30:20.599Z,20.48
2023-12-09T18:35:22.618Z,23.00
2023-12-09T18:40:24.428Z,20.27
2023-12-09T18:45:26.549Z,20.15
2023-12-09T18:50:28.296Z,23.17
2023-12-09T18:55:30.080Z,19.90
2023-12-09T19:00:34.683Z,25.23
2023-12-09T19:05:36.631Z,25.80
2023-12-09T19:10:41.106Z,23.95
2023-12-09T19:15:45.536Z,26.30
2023-12-09T19:20:50.511Z,27.80
2023-12-09T19:25:52.367Z,22.30
2023-12-09T19:30:55.139Z,23.63
2023-12-09T19:35:57.120Z,17.92
2023-12-09T19:40:59.116Z,23.55
2023-12-09T19:46:00.893Z,19.80
2023-12-09T19:51:02.648Z,23.48
2023-12-09T19:56:04.624Z,21.73
2023-12-09T20:01:06.742Z,22.52
2023-12-09T20:06:10.748Z,19.75
2023-12-09T20:11:12.568Z,23.27
2023-12-09T20:16:14.369Z,21.10
2023-12-09T20:21:16.134Z,22.33
2023-12-09T20:26:18.008Z,23.63
2023-12-09T20:31:19.795Z,21.75
2023-12-09T20:36:22.778Z,20.55
2023-12-09T20:41:24.504Z,24.85
2023-12-09T20:46:28.779Z,23.27
2023-12-09T20:51:30.631Z,27.15
2023-12-09T20:56:35.666Z,26.60
2023-12-09T21:01:46.029Z,20.08
2023-12-09T21:06:48.187Z,23.15
2023-12-09T21:11:49.999Z,21.75
2023-12-09T21:16:51.767Z,18.33
2023-12-09T21:21:53.692Z,23.13
2023-12-09T21:26:55.693Z,18.00
2023-12-09T21:31:57.460Z,26.55
2023-12-09T21:36:59.226Z,18.23
2023-12-09T21:42:02.275Z,20.33
2023-12-09T21:47:04.427Z,20.65
2023-12-09T21:52:06.254Z,20.00
2023-12-09T21:57:07.982Z,16.55
2023-12-09T22:02:10.965Z,24.65
2023-12-09T22:07:12.749Z,30.05
2023-12-09T22:12:14.464Z,21.75
2023-12-09T22:17:17.588Z,25.02
2023-12-09T22:22:19.431Z,23.33
2023-12-09T22:27:21.148Z,25.58
2023-12-09T22:32:25.775Z,26.58
2023-12-09T22:37:27.700Z,20.88
2023-12-09T22:42:29.793Z,25.10
2023-12-09T22:47:32.518Z,24.75
2023-12-09T22:52:34.493Z,16.23
2023-12-09T22:57:36.260Z,15.05
2023-12-09T23:02:38.034Z,23.70
2023-12-09T23:07:39.873Z,20.25
2023-12-09T23:12:41.613Z,16.83
2023-12-09T23:17:43.492Z,17.92
2023-12-09T23:22:45.174Z,27.00
2023-12-09T23:27:46.916Z,15.52
2023-12-09T23:32:48.684Z,26.08
2023-12-09T23:37:50.405Z,25.15
2023-12-09T23:42:52.172Z,20.38
2023-12-09T23:47:53.990Z,18.63
2023-12-09T23:52:55.784Z,22.63
2023-12-09T23:57:57.593Z,25.33
